sensor_id;sensor_type;location;lat;lon;timestamp;P1;durP1;ratioP1;P2;durP2;ratioP2
22502;SDS011;11418;48.118;9.992;2022-10-31T00:03:35;23.63;;;13.90;;
22502;SDS011;11418;48.118;9.992;2022-10-31T00:07:35;25.63;;;15.18;;
22502;SDS011;11418;48.118;9.992;2022-10-31T00:11:36;27.55;;;15.40;;
22502;SDS011;11418;48.118;9.992;2022-10-31T00:15:37;28.15;;;15.13;;
22502;SDS011;11418;48.118;9.992;2022-10-31T00:19:39;28.42;;;16.30;;
22502;SDS011;11418;48.118;9.992;2022-10-31T00:23:39;34.50;;;16.88;;
22502;SDS011;11418;48.118;9.992;2022-10-31T00:27:40;36.33;;;16.77;;
22502;SDS011;11418;48.118;9.992;2022-10-31T00:31:41;34.35;;;17.33;;
22502;SDS011;11418;48.118;9.992;2022-10-31T00:35:41;31.15;;;14.55;;
22502;SDS011;11418;48.118;9.992;2022-10-31T00:39:42;25.52;;;14.55;;
22502;SDS011;11418;48.118;9.992;2022-10-31T00:43:45;31.60;;;15.38;;
22502;SDS011;11418;48.118;9.992;2022-10-31T00:47:45;37.05;;;16.25;;
22502;SDS011;11418;48.118;9.992;2022-10-31T00:51:46;34.33;;;16.42;;
22502;SDS011;11418;48.118;9.992;2022-10-31T00:55:46;36.67;;;16.23;;
22502;SDS011;11418;48.118;9.992;2022-10-31T00:59:47;31.15;;;15.27;;
22502;SDS011;11418;48.118;9.992;2022-10-31T01:03:48;40.08;;;17.35;;
22502;SDS011;11418;48.118;9.992;2022-10-31T01:07:48;37.05;;;16.38;;
22502;SDS011;11418;48.118;9.992;2022-10-31T01:11:49;37.65;;;16.02;;
22502;SDS011;11418;48.118;9.992;2022-10-31T01:15:56;34.42;;;16.80;;
22502;SDS011;11418;48.118;9.992;2022-10-31T01:19:57;33.42;;;16.60;;
22502;SDS011;11418;48.118;9.992;2022-10-31T01:23:58;34.97;;;17.23;;
22502;SDS011;11418;48.118;9.992;2022-10-31T01:27:59;38.90;;;17.83;;
22502;SDS011;11418;48.118;9.992;2022-10-31T01:32:00;42.22;;;17.70;;
22502;SDS011;11418;48.118;9.992;2022-10-31T01:36:01;34.63;;;17.20;;
22502;SDS011;11418;48.118;9.992;2022-10-31T01:40:12;41.78;;;17.70;;
22502;SDS011;11418;48.118;9.992;2022-10-31T01:48:13;43.33;;;18.90;;
22502;SDS011;11418;48.118;9.992;2022-10-31T01:52:32;44.90;;;18.70;;
22502;SDS011;11418;48.118;9.992;2022-10-31T01:56:41;40.72;;;18.02;;
22502;SDS011;11418;48.118;9.992;2022-10-31T02:00:46;40.67;;;18.45;;
22502;SDS011;11418;48.118;9.992;2022-10-31T02:04:54;62.63;;;22.02;;
22502;SDS011;11418;48.118;9.992;2022-10-31T02:09:03;47.45;;;21.00;;
22502;SDS011;11418;48.118;9.992;2022-10-31T02:13:05;45.90;;;19.52;;
22502;SDS011;11418;48.118;9.992;2022-10-31T02:17:07;44.28;;;19.45;;
22502;SDS011;11418;48.118;9.992;2022-10-31T02:33:53;43.38;;;18.75;;
22502;SDS011;11418;48.118;9.992;2022-10-31T02:42:13;31.35;;;16.65;;
22502;SDS011;11418;48.118;9.992;2022-10-31T02:46:19;36.75;;;17.98;;
22502;SDS011;11418;48.118;9.992;2022-10-31T02:50:28;38.05;;;18.00;;
22502;SDS011;11418;48.118;9.992;2022-10-31T02:54:36;35.50;;;17.23;;
22502;SDS011;11418;48.118;9.992;2022-10-31T02:58:38;32.83;;;16.10;;
22502;SDS011;11418;48.118;9.992;2022-10-31T03:11:32;45.97;;;20.83;;
22502;SDS011;11418;48.118;9.992;2022-10-31T03:16:05;49.13;;;20.77;;
22502;SDS011;11418;48.118;9.992;2022-10-31T03:20:13;50.85;;;21.73;;
22502;SDS011;11418;48.118;9.992;2022-10-31T03:24:20;56.88;;;22.40;;
22502;SDS011;11418;48.118;9.992;2022-10-31T03:28:26;55.75;;;21.98;;
22502;SDS011;11418;48.118;9.992;2022-10-31T03:32:36;57.05;;;23.58;;
22502;SDS011;11418;48.118;9.992;2022-10-31T03:36:41;71.07;;;24.02;;
22502;SDS011;11418;48.118;9.992;2022-10-31T03:40:44;54.97;;;22.85;;
22502;SDS011;11418;48.118;9.992;2022-10-31T03:44:53;66.72;;;23.05;;
22502;SDS011;11418;48.118;9.992;2022-10-31T03:49:01;49.30;;;22.30;;
22502;SDS011;11418;48.118;9.992;2022-10-31T03:53:09;54.72;;;24.20;;
22502;SDS011;11418;48.118;9.992;2022-10-31T03:57:18;50.17;;;22.48;;
22502;SDS011;11418;48.118;9.992;2022-10-31T04:01:29;46.88;;;21.60;;
22502;SDS011;11418;48.118;9.992;2022-10-31T04:05:32;35.53;;;17.40;;
22502;SDS011;11418;48.118;9.992;2022-10-31T04:09:35;39.33;;;16.95;;
22502;SDS011;11418;48.118;9.992;2022-10-31T04:13:38;34.05;;;16.00;;
22502;SDS011;11418;48.118;9.992;2022-10-31T04:17:41;33.60;;;15.65;;
22502;SDS011;11418;48.118;9.992;2022-10-31T04:21:44;41.05;;;16.90;;
22502;SDS011;11418;48.118;9.992;2022-10-31T04:25:44;36.65;;;14.60;;
22502;SDS011;11418;48.118;9.992;2022-10-31T04:29:45;39.20;;;16.50;;
22502;SDS011;11418;48.118;9.992;2022-10-31T04:33:45;30.70;;;15.05;;
22502;SDS011;11418;48.118;9.992;2022-10-31T04:37:46;31.20;;;14.57;;
22502;SDS011;11418;48.118;9.992;2022-10-31T04:41:46;33.83;;;16.02;;
22502;SDS011;11418;48.118;9.992;2022-10-31T04:45:47;38.63;;;16.08;;
22502;SDS011;11418;48.118;9.992;2022-10-31T04:49:47;39.38;;;18.50;;
22502;SDS011;11418;48.118;9.992;2022-10-31T04:53:48;46.60;;;18.10;;
22502;SDS011;11418;48.118;9.992;2022-10-31T04:57:49;38.50;;;17.38;;
22502;SDS011;11418;48.118;9.992;2022-10-31T05:01:50;40.45;;;19.25;;
22502;SDS011;11418;48.118;9.992;2022-10-31T05:05:51;40.85;;;18.23;;
22502;SDS011;11418;48.118;9.992;2022-10-31T05:09:51;45.25;;;19.90;;
22502;SDS011;11418;48.118;9.992;2022-10-31T05:13:52;42.80;;;18.25;;
22502;SDS011;11418;48.118;9.992;2022-10-31T05:17:52;41.15;;;18.67;;
22502;SDS011;11418;48.118;9.992;2022-10-31T05:21:53;45.28;;;19.30;;
22502;SDS011;11418;48.118;9.992;2022-10-31T05:25:54;47.55;;;19.42;;
22502;SDS011;11418;48.118;9.992;2022-10-31T05:29:54;50.35;;;20.13;;
22502;SDS011;11418;48.118;9.992;2022-10-31T05:33:55;49.30;;;19.38;;
22502;SDS011;11418;48.118;9.992;2022-10-31T05:37:56;51.78;;;21.55;;
22502;SDS011;11418;48.118;9.992;2022-10-31T05:41:57;56.05;;;22.27;;
22502;SDS011;11418;48.118;9.992;2022-10-31T05:45:58;52.15;;;20.38;;
22502;SDS011;11418;48.118;9.992;2022-10-31T05:49:58;55.80;;;22.13;;
22502;SDS011;11418;48.118;9.992;2022-10-31T05:53:59;51.20;;;21.88;;
22502;SDS011;11418;48.118;9.992;2022-10-31T05:57:59;60.42;;;21.83;;
22502;SDS011;11418;48.118;9.992;2022-10-31T06:02:00;66.28;;;23.42;;
22502;SDS011;11418;48.118;9.992;2022-10-31T06:06:00;56.75;;;22.10;;
22502;SDS011;11418;48.118;9.992;2022-10-31T06:10:02;49.05;;;21.73;;
22502;SDS011;11418;48.118;9.992;2022-10-31T06:14:04;56.22;;;23.25;;
22502;SDS011;11418;48.118;9.992;2022-10-31T06:18:05;53.92;;;22.98;;
22502;SDS011;11418;48.118;9.992;2022-10-31T06:22:06;62.67;;;23.55;;
22502;SDS011;11418;48.118;9.992;2022-10-31T06:26:07;52.38;;;21.30;;
22502;SDS011;11418;48.118;9.992;2022-10-31T06:30:07;59.85;;;24.08;;
22502;SDS011;11418;48.118;9.992;2022-10-31T06:34:08;76.28;;;27.42;;
22502;SDS011;11418;48.118;9.992;2022-10-31T06:38:09;85.32;;;29.83;;
22502;SDS011;11418;48.118;9.992;2022-10-31T06:42:09;86.78;;;31.92;;
22502;SDS011;11418;48.118;9.992;2022-10-31T06:46:10;88.65;;;30.98;;
22502;SDS011;11418;48.118;9.992;2022-10-31T06:50:10;62.53;;;24.30;;
22502;SDS011;11418;48.118;9.992;2022-10-31T06:54:11;64.07;;;26.08;;
22502;SDS011;11418;48.118;9.992;2022-10-31T06:58:11;66.60;;;27.30;;
22502;SDS011;11418;48.118;9.992;2022-10-31T07:02:12;65.70;;;29.08;;
22502;SDS011;11418;48.118;9.992;2022-10-31T07:06:13;60.33;;;27.85;;
22502;SDS011;11418;48.118;9.992;2022-10-31T07:10:13;63.97;;;31.23;;
22502;SDS011;11418;48.118;9.992;2022-10-31T07:14:14;47.72;;;28.00;;
22502;SDS011;11418;48.118;9.992;2022-10-31T07:18:14;47.88;;;24.48;;
22502;SDS011;11418;48.118;9.992;2022-10-31T07:22:15;51.35;;;25.85;;
22502;SDS011;11418;48.118;9.992;2022-10-31T07:26:15;42.53;;;21.77;;
22502;SDS011;11418;48.118;9.992;2022-10-31T07:30:19;38.63;;;20.77;;
22502;SDS011;11418;48.118;9.992;2022-10-31T07:34:22;33.90;;;18.05;;
22502;SDS011;11418;48.118;9.992;2022-10-31T07:38:23;40.58;;;20.50;;
22502;SDS011;11418;48.118;9.992;2022-10-31T07:42:24;31.88;;;20.30;;
22502;SDS011;11418;48.118;9.992;2022-10-31T07:46:24;32.13;;;18.58;;
22502;SDS011;11418;48.118;9.992;2022-10-31T07:50:26;26.50;;;17.02;;
22502;SDS011;11418;48.118;9.992;2022-10-31T07:54:28;25.58;;;15.88;;
22502;SDS011;11418;48.118;9.992;2022-10-31T07:58:29;26.33;;;15.13;;
22502;SDS011;11418;48.118;9.992;2022-10-31T08:02:29;24.92;;;15.80;;
22502;SDS011;11418;48.118;9.992;2022-10-31T08:06:30;19.25;;;13.02;;
22502;SDS011;11418;48.118;9.992;2022-10-31T08:10:37;24.55;;;13.98;;
22502;SDS011;11418;48.118;9.992;2022-10-31T08:14:38;22.42;;;13.05;;
22502;SDS011;11418;48.118;9.992;2022-10-31T08:18:38;21.13;;;14.10;;
22502;SDS011;11418;48.118;9.992;2022-10-31T08:22:39;21.80;;;13.20;;
22502;SDS011;11418;48.118;9.992;2022-10-31T08:26:39;19.73;;;13.07;;
22502;SDS011;11418;48.118;9.992;2022-10-31T08:30:40;19.73;;;12.52;;
22502;SDS011;11418;48.118;9.992;2022-10-31T08:34:41;26.38;;;13.35;;
22502;SDS011;11418;48.118;9.992;2022-10-31T08:38:42;18.83;;;12.25;;
22502;SDS011;11418;48.118;9.992;2022-10-31T08:42:42;21.77;;;12.30;;
22502;SDS011;11418;48.118;9.992;2022-10-31T08:46:43;20.52;;;12.77;;
22502;SDS011;11418;48.118;9.992;2022-10-31T08:51:18;19.67;;;12.70;;
22502;SDS011;11418;48.118;9.992;2022-10-31T08:55:22;18.38;;;11.48;;
22502;SDS011;11418;48.118;9.992;2022-10-31T08:59:25;13.75;;;10.07;;
22502;SDS011;11418;48.118;9.992;2022-10-31T09:03:27;15.13;;;11.10;;
22502;SDS011;11418;48.118;9.992;2022-10-31T09:07:29;18.33;;;11.55;;
22502;SDS011;11418;48.118;9.992;2022-10-31T09:11:30;15.38;;;10.20;;
22502;SDS011;11418;48.118;9.992;2022-10-31T09:15:31;18.63;;;10.35;;
22502;SDS011;11418;48.118;9.992;2022-10-31T09:19:32;14.15;;;9.85;;
22502;SDS011;11418;48.118;9.992;2022-10-31T09:23:32;20.77;;;9.90;;
22502;SDS011;11418;48.118;9.992;2022-10-31T09:27:33;14.75;;;10.20;;
22502;SDS011;11418;48.118;9.992;2022-10-31T09:31:33;17.33;;;10.02;;
22502;SDS011;11418;48.118;9.992;2022-10-31T09:35:34;19.02;;;10.27;;
22502;SDS011;11418;48.118;9.992;2022-10-31T09:39:34;17.05;;;10.45;;
22502;SDS011;11418;48.118;9.992;2022-10-31T09:52:29;15.85;;;9.80;;
22502;SDS011;11418;48.118;9.992;2022-10-31T09:56:36;16.70;;;10.95;;
22502;SDS011;11418;48.118;9.992;2022-10-31T10:00:37;18.52;;;11.30;;
22502;SDS011;11418;48.118;9.992;2022-10-31T10:08:54;20.40;;;12.32;;
22502;SDS011;11418;48.118;9.992;2022-10-31T10:13:09;20.90;;;11.77;;
22502;SDS011;11418;48.118;9.992;2022-10-31T10:17:38;18.52;;;10.50;;
22502;SDS011;11418;48.118;9.992;2022-10-31T10:26:47;12.80;;;10.20;;
22502;SDS011;11418;48.118;9.992;2022-10-31T10:31:01;18.58;;;10.90;;
22502;SDS011;11418;48.118;9.992;2022-10-31T10:35:33;17.60;;;10.30;;
22502;SDS011;11418;48.118;9.992;2022-10-31T10:39:37;17.90;;;9.70;;
22502;SDS011;11418;48.118;9.992;2022-10-31T10:43:41;11.88;;;7.85;;
22502;SDS011;11418;48.118;9.992;2022-10-31T10:47:48;14.80;;;8.52;;
22502;SDS011;11418;48.118;9.992;2022-10-31T10:52:12;13.25;;;7.05;;
22502;SDS011;11418;48.118;9.992;2022-10-31T10:56:29;11.98;;;6.60;;
22502;SDS011;11418;48.118;9.992;2022-10-31T11:00:38;11.65;;;4.93;;
22502;SDS011;11418;48.118;9.992;2022-10-31T11:04:47;11.50;;;6.43;;
22502;SDS011;11418;48.118;9.992;2022-10-31T11:08:54;13.02;;;6.35;;
22502;SDS011;11418;48.118;9.992;2022-10-31T11:17:22;15.23;;;5.55;;
22502;SDS011;11418;48.118;9.992;2022-10-31T11:21:27;11.73;;;6.38;;
22502;SDS011;11418;48.118;9.992;2022-10-31T11:25:29;10.52;;;6.20;;
22502;SDS011;11418;48.118;9.992;2022-10-31T11:29:30;9.70;;;5.28;;
22502;SDS011;11418;48.118;9.992;2022-10-31T11:33:32;9.02;;;4.88;;
22502;SDS011;11418;48.118;9.992;2022-10-31T11:37:40;13.63;;;5.30;;
22502;SDS011;11418;48.118;9.992;2022-10-31T11:41:43;11.07;;;4.97;;
22502;SDS011;11418;48.118;9.992;2022-10-31T11:45:44;11.77;;;5.45;;
22502;SDS011;11418;48.118;9.992;2022-10-31T11:49:45;11.27;;;5.13;;
22502;SDS011;11418;48.118;9.992;2022-10-31T11:53:51;10.85;;;5.03;;
22502;SDS011;11418;48.118;9.992;2022-10-31T11:57:54;10.63;;;4.75;;
22502;SDS011;11418;48.118;9.992;2022-10-31T12:01:56;9.85;;;5.07;;
22502;SDS011;11418;48.118;9.992;2022-10-31T12:06:05;9.60;;;4.82;;
22502;SDS011;11418;48.118;9.992;2022-10-31T12:10:11;15.48;;;5.53;;
22502;SDS011;11418;48.118;9.992;2022-10-31T12:14:23;11.98;;;5.38;;
22502;SDS011;11418;48.118;9.992;2022-10-31T12:18:32;17.30;;;5.60;;
22502;SDS011;11418;48.118;9.992;2022-10-31T12:23:17;14.18;;;5.68;;
22502;SDS011;11418;48.118;9.992;2022-10-31T12:54:27;12.93;;;5.95;;
22502;SDS011;11418;48.118;9.992;2022-10-31T12:58:33;11.35;;;7.00;;
22502;SDS011;11418;48.118;9.992;2022-10-31T13:06:47;14.45;;;8.85;;
22502;SDS011;11418;48.118;9.992;2022-10-31T13:11:03;15.75;;;10.23;;
22502;SDS011;11418;48.118;9.992;2022-10-31T13:15:20;14.10;;;9.98;;
22502;SDS011;11418;48.118;9.992;2022-10-31T13:19:26;15.38;;;10.18;;
22502;SDS011;11418;48.118;9.992;2022-10-31T13:23:34;14.20;;;9.15;;
22502;SDS011;11418;48.118;9.992;2022-10-31T13:28:12;13.77;;;9.20;;
22502;SDS011;11418;48.118;9.992;2022-10-31T13:32:24;15.70;;;8.63;;
22502;SDS011;11418;48.118;9.992;2022-10-31T13:40:48;16.02;;;8.43;;
22502;SDS011;11418;48.118;9.992;2022-10-31T13:44:54;14.35;;;7.68;;
22502;SDS011;11418;48.118;9.992;2022-10-31T13:48:55;10.80;;;7.43;;
22502;SDS011;11418;48.118;9.992;2022-10-31T13:57:30;16.27;;;6.55;;
22502;SDS011;11418;48.118;9.992;2022-10-31T14:01:53;13.98;;;6.20;;
22502;SDS011;11418;48.118;9.992;2022-10-31T14:05:56;11.32;;;6.05;;
22502;SDS011;11418;48.118;9.992;2022-10-31T14:14:08;9.98;;;5.72;;
22502;SDS011;11418;48.118;9.992;2022-10-31T14:18:22;13.10;;;6.50;;
22502;SDS011;11418;48.118;9.992;2022-10-31T14:22:28;14.57;;;5.97;;
22502;SDS011;11418;48.118;9.992;2022-10-31T14:26:32;14.50;;;5.90;;
22502;SDS011;11418;48.118;9.992;2022-10-31T14:30:34;9.10;;;5.03;;
22502;SDS011;11418;48.118;9.992;2022-10-31T14:34:37;13.73;;;5.55;;
22502;SDS011;11418;48.118;9.992;2022-10-31T14:47:57;11.98;;;5.93;;
22502;SDS011;11418;48.118;9.992;2022-10-31T14:52:07;9.93;;;5.57;;
22502;SDS011;11418;48.118;9.992;2022-10-31T14:56:09;13.77;;;6.38;;
22502;SDS011;11418;48.118;9.992;2022-10-31T15:00:17;16.20;;;5.88;;
22502;SDS011;11418;48.118;9.992;2022-10-31T15:04:23;11.43;;;5.65;;
22502;SDS011;11418;48.118;9.992;2022-10-31T15:08:33;14.80;;;6.40;;
22502;SDS011;11418;48.118;9.992;2022-10-31T15:12:35;17.08;;;5.82;;
22502;SDS011;11418;48.118;9.992;2022-10-31T15:16:39;26.30;;;7.00;;
22502;SDS011;11418;48.118;9.992;2022-10-31T15:20:43;22.42;;;7.07;;
22502;SDS011;11418;48.118;9.992;2022-10-31T15:24:45;16.52;;;6.20;;
22502;SDS011;11418;48.118;9.992;2022-10-31T15:34:12;24.75;;;9.13;;
22502;SDS011;11418;48.118;9.992;2022-10-31T15:38:19;24.73;;;8.05;;
22502;SDS011;11418;48.118;9.992;2022-10-31T15:42:39;23.83;;;8.48;;
22502;SDS011;11418;48.118;9.992;2022-10-31T15:51:31;19.15;;;8.90;;
22502;SDS011;11418;48.118;9.992;2022-10-31T15:55:38;17.45;;;8.40;;
22502;SDS011;11418;48.118;9.992;2022-10-31T15:59:59;12.52;;;7.53;;
22502;SDS011;11418;48.118;9.992;2022-10-31T16:08:26;20.52;;;9.15;;
22502;SDS011;11418;48.118;9.992;2022-10-31T16:12:36;17.13;;;9.15;;
22502;SDS011;11418;48.118;9.992;2022-10-31T16:16:43;23.40;;;9.50;;
22502;SDS011;11418;48.118;9.992;2022-10-31T16:21:01;20.90;;;9.02;;
22502;SDS011;11418;48.118;9.992;2022-10-31T16:29:39;19.42;;;9.55;;
22502;SDS011;11418;48.118;9.992;2022-10-31T16:33:43;30.83;;;15.18;;
22502;SDS011;11418;48.118;9.992;2022-10-31T16:37:44;32.70;;;13.15;;
22502;SDS011;11418;48.118;9.992;2022-10-31T16:41:46;17.63;;;9.63;;
22502;SDS011;11418;48.118;9.992;2022-10-31T16:45:50;16.67;;;8.45;;
22502;SDS011;11418;48.118;9.992;2022-10-31T16:49:52;16.90;;;7.88;;
22502;SDS011;11418;48.118;9.992;2022-10-31T16:53:52;21.25;;;8.88;;
22502;SDS011;11418;48.118;9.992;2022-10-31T16:57:54;22.95;;;10.82;;
22502;SDS011;11418;48.118;9.992;2022-10-31T17:06:21;19.98;;;9.00;;
22502;SDS011;11418;48.118;9.992;2022-10-31T17:10:22;17.90;;;10.27;;
22502;SDS011;11418;48.118;9.992;2022-10-31T17:14:23;23.92;;;14.10;;
22502;SDS011;11418;48.118;9.992;2022-10-31T17:18:24;38.03;;;14.80;;
22502;SDS011;11418;48.118;9.992;2022-10-31T17:22:25;29.55;;;16.48;;
22502;SDS011;11418;48.118;9.992;2022-10-31T17:26:26;24.33;;;13.73;;
22502;SDS011;11418;48.118;9.992;2022-10-31T17:30:27;20.40;;;11.05;;
22502;SDS011;11418;48.118;9.992;2022-10-31T17:34:28;27.10;;;9.88;;
22502;SDS011;11418;48.118;9.992;2022-10-31T17:38:29;17.40;;;8.77;;
22502;SDS011;11418;48.118;9.992;2022-10-31T17:42:29;17.30;;;10.80;;
22502;SDS011;11418;48.118;9.992;2022-10-31T17:46:30;20.60;;;11.73;;
22502;SDS011;11418;48.118;9.992;2022-10-31T17:50:30;22.55;;;11.02;;
22502;SDS011;11418;48.118;9.992;2022-10-31T17:54:31;24.05;;;13.88;;
22502;SDS011;11418;48.118;9.992;2022-10-31T17:58:33;30.50;;;15.63;;
22502;SDS011;11418;48.118;9.992;2022-10-31T18:02:35;31.42;;;15.40;;
22502;SDS011;11418;48.118;9.992;2022-10-31T18:06:35;29.00;;;15.23;;
22502;SDS011;11418;48.118;9.992;2022-10-31T18:10:37;34.22;;;16.35;;
22502;SDS011;11418;48.118;9.992;2022-10-31T18:14:38;34.45;;;18.50;;
22502;SDS011;11418;48.118;9.992;2022-10-31T18:18:39;35.70;;;18.05;;
22502;SDS011;11418;48.118;9.992;2022-10-31T18:22:40;37.83;;;19.00;;
22502;SDS011;11418;48.118;9.992;2022-10-31T18:26:40;25.33;;;12.60;;
22502;SDS011;11418;48.118;9.992;2022-10-31T18:30:41;24.48;;;12.18;;
22502;SDS011;11418;48.118;9.992;2022-10-31T18:34:41;25.58;;;14.88;;
22502;SDS011;11418;48.118;9.992;2022-10-31T18:38:42;36.67;;;16.20;;
22502;SDS011;11418;48.118;9.992;2022-10-31T18:42:46;30.45;;;15.40;;
22502;SDS011;11418;48.118;9.992;2022-10-31T18:46:46;40.97;;;18.63;;
22502;SDS011;11418;48.118;9.992;2022-10-31T18:50:47;40.05;;;17.92;;
22502;SDS011;11418;48.118;9.992;2022-10-31T18:54:48;33.10;;;16.23;;
22502;SDS011;11418;48.118;9.992;2022-10-31T18:58:48;39.50;;;16.80;;
22502;SDS011;11418;48.118;9.992;2022-10-31T19:02:49;38.85;;;18.02;;
22502;SDS011;11418;48.118;9.992;2022-10-31T19:06:50;33.35;;;17.83;;
22502;SDS011;11418;48.118;9.992;2022-10-31T19:10:50;35.22;;;18.85;;
22502;SDS011;11418;48.118;9.992;2022-10-31T19:14:51;40.75;;;22.45;;
22502;SDS011;11418;48.118;9.992;2022-10-31T19:18:53;52.83;;;21.63;;
22502;SDS011;11418;48.118;9.992;2022-10-31T19:22:58;36.08;;;20.08;;
22502;SDS011;11418;48.118;9.992;2022-10-31T19:27:04;41.55;;;22.67;;
22502;SDS011;11418;48.118;9.992;2022-10-31T19:31:10;36.05;;;21.13;;
22502;SDS011;11418;48.118;9.992;2022-10-31T19:35:13;30.33;;;19.63;;
22502;SDS011;11418;48.118;9.992;2022-10-31T19:39:17;31.58;;;19.63;;
22502;SDS011;11418;48.118;9.992;2022-10-31T19:43:21;29.63;;;17.85;;
22502;SDS011;11418;48.118;9.992;2022-10-31T19:47:24;36.25;;;17.98;;
22502;SDS011;11418;48.118;9.992;2022-10-31T19:51:25;33.28;;;18.23;;
22502;SDS011;11418;48.118;9.992;2022-10-31T19:55:29;30.65;;;19.02;;
22502;SDS011;11418;48.118;9.992;2022-10-31T19:59:32;42.30;;;19.55;;
22502;SDS011;11418;48.118;9.992;2022-10-31T20:03:42;33.73;;;19.77;;
22502;SDS011;11418;48.118;9.992;2022-10-31T20:07:46;40.05;;;22.17;;
22502;SDS011;11418;48.118;9.992;2022-10-31T20:11:57;36.60;;;20.75;;
22502;SDS011;11418;48.118;9.992;2022-10-31T20:16:07;32.13;;;18.75;;
22502;SDS011;11418;48.118;9.992;2022-10-31T20:20:10;28.65;;;15.23;;
22502;SDS011;11418;48.118;9.992;2022-10-31T20:24:11;21.17;;;14.88;;
22502;SDS011;11418;48.118;9.992;2022-10-31T20:28:15;24.50;;;14.38;;
22502;SDS011;11418;48.118;9.992;2022-10-31T20:32:19;23.42;;;14.15;;
22502;SDS011;11418;48.118;9.992;2022-10-31T20:36:23;27.60;;;15.18;;
22502;SDS011;11418;48.118;9.992;2022-10-31T20:40:27;33.17;;;16.10;;
22502;SDS011;11418;48.118;9.992;2022-10-31T20:44:38;32.88;;;16.20;;
22502;SDS011;11418;48.118;9.992;2022-10-31T20:48:48;29.90;;;15.52;;
22502;SDS011;11418;48.118;9.992;2022-10-31T20:52:49;36.10;;;16.10;;
22502;SDS011;11418;48.118;9.992;2022-10-31T20:56:50;33.10;;;16.55;;
22502;SDS011;11418;48.118;9.992;2022-10-31T21:00:54;43.08;;;18.13;;
22502;SDS011;11418;48.118;9.992;2022-10-31T21:04:54;32.47;;;17.08;;
22502;SDS011;11418;48.118;9.992;2022-10-31T21:08:55;65.35;;;30.83;;
22502;SDS011;11418;48.118;9.992;2022-10-31T21:13:00;27.30;;;15.98;;
22502;SDS011;11418;48.118;9.992;2022-10-31T21:17:00;31.45;;;15.98;;
22502;SDS011;11418;48.118;9.992;2022-10-31T21:21:05;28.35;;;15.75;;
22502;SDS011;11418;48.118;9.992;2022-10-31T21:25:10;31.57;;;16.17;;
22502;SDS011;11418;48.118;9.992;2022-10-31T21:29:14;38.28;;;19.80;;
22502;SDS011;11418;48.118;9.992;2022-10-31T21:33:16;29.10;;;14.10;;
22502;SDS011;11418;48.118;9.992;2022-10-31T21:37:20;37.88;;;20.85;;
22502;SDS011;11418;48.118;9.992;2022-10-31T21:41:21;37.15;;;20.27;;
22502;SDS011;11418;48.118;9.992;2022-10-31T21:45:22;40.80;;;20.13;;
22502;SDS011;11418;48.118;9.992;2022-10-31T21:49:23;42.17;;;20.80;;
22502;SDS011;11418;48.118;9.992;2022-10-31T21:53:24;44.95;;;21.45;;
22502;SDS011;11418;48.118;9.992;2022-10-31T21:57:43;43.03;;;20.88;;
22502;SDS011;11418;48.118;9.992;2022-10-31T22:01:43;51.47;;;20.90;;
22502;SDS011;11418;48.118;9.992;2022-10-31T22:05:44;46.15;;;22.75;;
22502;SDS011;11418;48.118;9.992;2022-10-31T22:09:44;52.35;;;25.60;;
22502;SDS011;11418;48.118;9.992;2022-10-31T22:13:48;65.35;;;27.92;;
22502;SDS011;11418;48.118;9.992;2022-10-31T22:17:49;71.65;;;31.10;;
22502;SDS011;11418;48.118;9.992;2022-10-31T22:21:49;64.93;;;28.73;;
22502;SDS011;11418;48.118;9.992;2022-10-31T22:25:50;64.20;;;32.33;;
22502;SDS011;11418;48.118;9.992;2022-10-31T22:29:50;75.18;;;33.80;;
22502;SDS011;11418;48.118;9.992;2022-10-31T22:33:51;81.53;;;36.15;;
22502;SDS011;11418;48.118;9.992;2022-10-31T22:37:52;88.97;;;38.55;;
22502;SDS011;11418;48.118;9.992;2022-10-31T22:41:53;78.38;;;35.35;;
22502;SDS011;11418;48.118;9.992;2022-10-31T22:45:57;168.75;;;82.63;;
22502;SDS011;11418;48.118;9.992;2022-10-31T22:50:03;96.28;;;42.40;;
22502;SDS011;11418;48.118;9.992;2022-10-31T22:54:14;88.97;;;37.92;;
22502;SDS011;11418;48.118;9.992;2022-10-31T22:58:16;70.70;;;35.47;;
22502;SDS011;11418;48.118;9.992;2022-10-31T23:02:17;60.83;;;32.60;;
22502;SDS011;11418;48.118;9.992;2022-10-31T23:06:18;60.92;;;32.88;;
22502;SDS011;11418;48.118;9.992;2022-10-31T23:10:21;61.58;;;32.35;;
22502;SDS011;11418;48.118;9.992;2022-10-31T23:14:32;54.45;;;29.15;;
22502;SDS011;11418;48.118;9.992;2022-10-31T23:18:32;53.47;;;28.38;;
22502;SDS011;11418;48.118;9.992;2022-10-31T23:22:35;52.50;;;28.17;;
22502;SDS011;11418;48.118;9.992;2022-10-31T23:26:36;58.20;;;29.02;;
22502;SDS011;11418;48.118;9.992;2022-10-31T23:30:56;49.38;;;28.13;;
22502;SDS011;11418;48.118;9.992;2022-10-31T23:34:57;47.72;;;27.05;;
22502;SDS011;11418;48.118;9.992;2022-10-31T23:38:59;56.35;;;28.17;;
22502;SDS011;11418;48.118;9.992;2022-10-31T23:42:59;56.15;;;29.63;;
22502;SDS011;11418;48.118;9.992;2022-10-31T23:47:00;64.22;;;30.45;;
22502;SDS011;11418;48.118;9.992;2022-10-31T23:51:01;60.40;;;29.40;;
22502;SDS011;11418;48.118;9.992;2022-10-31T23:55:01;46.83;;;27.42;;
22502;SDS011;11418;48.118;9.992;2022-10-31T23:59:02;51.65;;;28.05;;
